Time;durP1;ratioP1;P1;durP2;ratioP2;P2;SDS_P1;SDS_P2;PMS_P1;PMS_P2;Temp;Humidity;BMP_temperature;BMP_pressure;BME280_temperature;BME280_humidity;BME280_pressure;Samples;Min_cycle;Max_cycle;Signal;HPM_P1;HPM_P2
2021/11/03 00:00:25;;;;;;;12.50;9.15;;;24.00;42.20;;;;;;6154244;28;80181;-66
2021/11/03 00:03:27;;;;;;;13.35;9.32;;;23.90;42.50;;;;;;6153045;28;80976;-64
2021/11/03 00:06:27;;;;;;;13.98;8.95;;;23.90;42.30;;;;;;6141885;28;80735;-64
2021/11/03 00:09:28;;;;;;;13.05;9.10;;;23.90;42.40;;;;;;6137301;28;82050;-64
2021/11/03 00:12:28;;;;;;;12.98;9.43;;;23.90;42.50;;;;;;6145124;28;82833;-64
2021/11/03 00:15:29;;;;;;;13.68;8.70;;;23.90;42.20;;;;;;6151648;28;81938;-64
2021/11/03 00:18:30;;;;;;;12.60;8.50;;;23.90;42.40;;;;;;6151748;28;80408;-65
2021/11/03 00:21:30;;;;;;;11.77;8.45;;;23.90;42.30;;;;;;6143293;28;80070;-64
2021/11/03 00:24:34;;;;;;;11.82;8.30;;;23.90;42.40;;;;;;6143578;28;80547;-64
2021/11/03 00:27:34;;;;;;;12.35;8.60;;;23.90;42.30;;;;;;6141470;28;82286;-64
2021/11/03 00:30:35;;;;;;;13.25;8.50;;;23.80;42.10;;;;;;6154249;28;80826;-64
2021/11/03 00:33:36;;;;;;;12.65;8.65;;;23.90;42.30;;;;;;6150905;28;80945;-64
2021/11/03 00:36:36;;;;;;;11.45;8.48;;;23.90;42.20;;;;;;6149736;28;80295;-64
2021/11/03 00:39:37;;;;;;;12.63;8.68;;;23.80;42.40;;;;;;6137492;28;82362;-64
2021/11/03 00:42:37;;;;;;;12.73;8.65;;;23.80;42.20;;;;;;6139474;28;82783;-64
2021/11/03 00:45:38;;;;;;;15.20;9.43;;;23.80;42.50;;;;;;6142211;28;82832;-65
2021/11/03 00:48:40;;;;;;;11.23;8.23;;;23.80;42.30;;;;;;6152763;28;83331;-64
2021/11/03 00:51:42;;;;;;;12.50;8.30;;;23.80;42.20;;;;;;6148410;28;81506;-65
2021/11/03 00:54:42;;;;;;;13.68;8.57;;;23.80;42.30;;;;;;6143719;28;83112;-64
2021/11/03 00:57:43;;;;;;;11.85;8.32;;;23.80;42.20;;;;;;6151936;28;81579;-65
2021/11/03 01:00:44;;;;;;;11.95;8.00;;;23.80;42.20;;;;;;6144486;28;83501;-64
2021/11/03 01:03:44;;;;;;;11.80;7.90;;;23.80;42.20;;;;;;6138210;28;82105;-64
2021/11/03 01:06:45;;;;;;;12.02;8.00;;;23.80;42.30;;;;;;6143118;28;80908;-64
2021/11/03 01:09:46;;;;;;;13.63;8.80;;;23.80;42.20;;;;;;6140947;28;80837;-64
2021/11/03 01:12:46;;;;;;;11.50;7.68;;;23.80;42.30;;;;;;6142226;28;80604;-64
2021/11/03 01:15:47;;;;;;;11.23;7.95;;;23.80;42.40;;;;;;6140765;28;80596;-65
2021/11/03 01:18:53;;;;;;;12.90;8.35;;;23.80;42.20;;;;;;6137840;28;80791;-65
2021/11/03 01:21:53;;;;;;;;;;;23.80;42.20;;;;;;6152401;28;80777;-65
2021/11/03 01:24:55;;;;;;;11.75;7.35;;;23.80;42.20;;;;;;6148427;28;82981;-64
2021/11/03 01:27:56;;;;;;;12.88;8.32;;;23.80;42.10;;;;;;6149430;28;81032;-64
2021/11/03 01:30:57;;;;;;;11.88;8.10;;;23.80;42.20;;;;;;6142613;28;81939;-65
2021/11/03 01:33:59;;;;;;;12.00;8.20;;;23.80;42.30;;;;;;6147023;28;81334;-65
2021/11/03 01:37:00;;;;;;;12.63;9.07;;;23.80;42.60;;;;;;6148248;28;82211;-64
2021/11/03 01:40:00;;;;;;;13.68;8.63;;;23.70;42.30;;;;;;6141245;28;81538;-65
2021/11/03 01:43:01;;;;;;;10.95;8.43;;;23.70;42.30;;;;;;6148444;28;83543;-65
2021/11/03 01:46:01;;;;;;;13.43;8.80;;;23.70;42.40;;;;;;6148151;28;83382;-65
2021/11/03 01:49:02;;;;;;;14.43;9.48;;;23.70;42.60;;;;;;6151157;28;83141;-65
2021/11/03 01:52:03;;;;;;;11.70;8.25;;;23.70;42.60;;;;;;6142796;28;82569;-65
2021/11/03 01:55:04;;;;;;;11.48;8.02;;;23.70;42.70;;;;;;6143651;28;82979;-63
2021/11/03 01:58:05;;;;;;;14.95;9.65;;;23.70;42.70;;;;;;6148096;28;81206;-64
2021/11/03 02:01:06;;;;;;;13.55;8.60;;;23.70;42.70;;;;;;6152815;28;82125;-63
2021/11/03 02:04:06;;;;;;;13.23;8.20;;;23.70;42.50;;;;;;6153020;28;82092;-63
2021/11/03 02:07:08;;;;;;;11.55;7.07;;;23.60;42.50;;;;;;6154686;28;81471;-63
2021/11/03 02:10:08;;;;;;;13.02;8.55;;;23.60;42.60;;;;;;6144815;28;82744;-63
2021/11/03 02:13:09;;;;;;;11.02;7.35;;;23.60;42.60;;;;;;6142677;28;82634;-63
2021/11/03 02:16:09;;;;;;;11.80;7.55;;;23.60;42.40;;;;;;6152690;28;82368;-63
2021/11/03 02:19:11;;;;;;;10.20;7.10;;;23.60;42.40;;;;;;6147374;28;80380;-63
2021/11/03 02:22:11;;;;;;;12.27;7.80;;;23.60;42.20;;;;;;6148658;28;83545;-66
2021/11/03 02:25:12;;;;;;;9.70;7.03;;;23.60;42.30;;;;;;6151051;28;80441;-64
2021/11/03 02:28:12;;;;;;;9.02;6.50;;;23.60;42.30;;;;;;6152926;28;82991;-64
2021/11/03 02:31:13;;;;;;;9.25;6.22;;;23.60;42.10;;;;;;6152726;28;81694;-64
2021/11/03 02:34:13;;;;;;;12.48;6.57;;;23.60;41.90;;;;;;6152958;28;82354;-64
2021/11/03 02:37:14;;;;;;;8.52;5.65;;;23.60;41.90;;;;;;6148827;28;83587;-64
2021/11/03 02:40:15;;;;;;;8.82;6.30;;;23.60;41.80;;;;;;6145622;28;80669;-64
2021/11/03 02:43:16;;;;;;;7.85;5.40;;;23.60;41.70;;;;;;6140292;28;80505;-64
2021/11/03 02:46:16;;;;;;;8.45;5.30;;;23.60;41.90;;;;;;6139693;28;83075;-64
2021/11/03 02:49:17;;;;;;;8.98;5.35;;;23.50;41.60;;;;;;6151993;28;83434;-64
2021/11/03 02:52:18;;;;;;;7.75;4.90;;;23.50;41.80;;;;;;6147698;28;83081;-63
2021/11/03 02:55:18;;;;;;;6.88;4.93;;;23.50;42.20;;;;;;6140604;28;81060;-64
2021/11/03 02:58:19;;;;;;;7.28;4.93;;;23.50;41.40;;;;;;6147013;28;80573;-64
2021/11/03 03:01:19;;;;;;;5.97;4.80;;;23.50;41.60;;;;;;6148514;28;81231;-64
2021/11/03 03:04:20;;;;;;;6.55;4.72;;;23.50;41.60;;;;;;6150855;28;82194;-65
2021/11/03 03:07:21;;;;;;;5.95;4.53;;;23.50;41.20;;;;;;6147565;28;83014;-64
2021/11/03 03:10:22;;;;;;;4.63;3.55;;;23.50;41.30;;;;;;6156447;28;83530;-64
2021/11/03 03:13:23;;;;;;;5.30;3.72;;;23.50;41.60;;;;;;6144571;28;83384;-64
2021/11/03 03:16:24;;;;;;;5.57;4.07;;;23.50;41.60;;;;;;6138319;28;82159;-64
2021/11/03 03:19:24;;;;;;;6.03;4.57;;;23.50;41.30;;;;;;6141288;28;82762;-64
2021/11/03 03:22:25;;;;;;;4.70;3.60;;;23.50;41.70;;;;;;6154779;28;82852;-64
2021/11/03 03:25:30;;;;;;;6.35;4.53;;;23.50;41.30;;;;;;6138447;28;83298;-63
2021/11/03 03:28:32;;;;;;;5.05;3.90;;;23.50;41.40;;;;;;6152730;28;80333;-64
2021/11/03 03:31:32;;;;;;;4.93;3.90;;;23.50;41.30;;;;;;6150057;28;83237;-64
2021/11/03 03:34:33;;;;;;;5.78;3.75;;;23.40;41.30;;;;;;6151593;28;83768;-65
2021/11/03 03:37:34;;;;;;;5.57;4.15;;;23.40;41.30;;;;;;6154713;28;81800;-64
2021/11/03 03:40:35;;;;;;;5.32;3.70;;;23.40;41.20;;;;;;6152378;28;83353;-64
2021/11/03 03:43:35;;;;;;;6.65;3.38;;;23.40;41.20;;;;;;6143517;28;80537;-63
2021/11/03 03:46:36;;;;;;;4.25;3.13;;;23.40;41.10;;;;;;6145870;28;83412;-63
2021/11/03 03:49:37;;;;;;;4.07;3.50;;;23.40;41.00;;;;;;6150775;28;82857;-63
2021/11/03 03:52:38;;;;;;;4.03;3.03;;;23.40;41.10;;;;;;6142718;28;83100;-63
2021/11/03 03:55:39;;;;;;;4.00;3.40;;;23.40;41.00;;;;;;6144160;28;80702;-63
2021/11/03 03:58:40;;;;;;;6.18;3.25;;;23.40;41.40;;;;;;6143334;28;83362;-63
2021/11/03 04:01:41;;;;;;;4.05;3.45;;;23.50;41.00;;;;;;6147393;28;83173;-62
2021/11/03 04:04:42;;;;;;;4.40;3.10;;;23.50;41.40;;;;;;6156375;28;83302;-66
2021/11/03 04:07:42;;;;;;;6.90;3.33;;;23.60;41.20;;;;;;6162169;28;80569;-64
2021/11/03 04:10:43;;;;;;;3.63;2.90;;;23.70;41.00;;;;;;6156976;28;82826;-64
2021/11/03 04:13:46;;;;;;;4.82;3.00;;;23.80;40.90;;;;;;6145613;28;82590;-65
2021/11/03 04:16:47;;;;;;;3.83;2.90;;;23.80;40.80;;;;;;6142948;28;80478;-64
2021/11/03 04:19:47;;;;;;;5.03;2.83;;;23.80;40.60;;;;;;6139970;28;82656;-64
2021/11/03 04:22:48;;;;;;;4.18;2.83;;;23.90;40.60;;;;;;6155015;28;81546;-64
2021/11/03 04:25:49;;;;;;;3.42;2.70;;;23.90;40.50;;;;;;6151721;28;83200;-64
2021/11/03 04:28:50;;;;;;;4.45;2.90;;;24.00;40.40;;;;;;6150777;28;82335;-65
2021/11/03 04:31:51;;;;;;;3.95;2.72;;;24.00;40.20;;;;;;6145762;28;83087;-65
2021/11/03 04:34:52;;;;;;;3.67;2.53;;;24.00;40.20;;;;;;6149002;28;81711;-65
2021/11/03 04:37:53;;;;;;;3.65;2.90;;;24.10;40.00;;;;;;6153637;28;80395;-66
2021/11/03 04:40:53;;;;;;;2.63;2.17;;;24.10;39.90;;;;;;6154169;28;82711;-65
2021/11/03 04:43:54;;;;;;;2.95;2.58;;;24.10;40.00;;;;;;6153491;28;83928;-64
2021/11/03 04:46:56;;;;;;;2.75;2.30;;;24.10;39.90;;;;;;6139901;28;82997;-65
2021/11/03 04:50:01;;;;;;;2.70;2.50;;;24.20;39.70;;;;;;6154029;28;83166;-65
2021/11/03 04:53:05;;;;;;;2.42;2.22;;;24.20;39.80;;;;;;6155173;28;80643;-63
2021/11/03 04:56:08;;;;;;;3.80;2.40;;;24.30;39.60;;;;;;6150302;28;81744;-63
2021/11/03 04:59:09;;;;;;;2.90;2.42;;;24.30;39.60;;;;;;6149143;28;80704;-64
2021/11/03 05:02:09;;;;;;;3.90;2.42;;;24.30;39.70;;;;;;6158859;28;81642;-61
2021/11/03 05:05:11;;;;;;;2.58;2.30;;;24.30;39.70;;;;;;6141620;28;82201;-61
2021/11/03 05:08:11;;;;;;;3.40;2.60;;;24.30;39.70;;;;;;6145426;28;82949;-62
2021/11/03 05:11:12;;;;;;;3.35;2.78;;;24.40;40.30;;;;;;6141475;28;80555;-61
2021/11/03 05:14:12;;;;;;;4.95;3.00;;;24.40;39.50;;;;;;6153772;28;83140;-60
2021/11/03 05:17:19;;;;;;;4.93;3.10;;;24.40;39.50;;;;;;6149708;28;83287;-60
2021/11/03 05:20:19;;;;;;;4.70;3.30;;;24.40;39.20;;;;;;6155218;28;83142;-61
2021/11/03 05:23:27;;;;;;;8.25;3.38;;;24.40;39.20;;;;;;6156735;28;83528;-61
2021/11/03 05:26:28;;;;;;;3.58;3.00;;;24.40;39.30;;;;;;6143901;28;80755;-61
2021/11/03 05:29:28;;;;;;;4.25;3.17;;;24.40;39.50;;;;;;6147111;28;83248;-62
2021/11/03 05:32:29;;;;;;;5.47;3.25;;;24.40;39.60;;;;;;6154855;28;81107;-61
2021/11/03 05:35:29;;;;;;;8.02;3.10;;;24.40;39.40;;;;;;6147552;28;80129;-61
2021/11/03 05:38:30;;;;;;;4.60;3.40;;;24.40;39.30;;;;;;6151443;28;81243;-60
2021/11/03 05:41:31;;;;;;;8.13;3.53;;;24.40;39.70;;;;;;6153251;28;80451;-60
2021/11/03 05:44:32;;;;;;;8.20;3.28;;;24.40;39.80;;;;;;6148698;28;81440;-60
2021/11/03 05:47:32;;;;;;;5.90;3.45;;;24.40;39.90;;;;;;6153554;28;80926;-60
2021/11/03 05:50:33;;;;;;;3.47;2.95;;;24.40;40.50;;;;;;6146158;28;81337;-60
2021/11/03 05:53:37;;;;;;;5.32;3.28;;;24.40;41.30;;;;;;6153721;28;81861;-61
2021/11/03 05:56:38;;;;;;;9.32;4.03;;;24.40;41.80;;;;;;6146596;28;81466;-61
2021/11/03 05:59:38;;;;;;;5.78;4.07;;;24.40;41.20;;;;;;6142441;28;80639;-60
2021/11/03 06:02:39;;;;;;;8.48;4.70;;;24.40;41.40;;;;;;6149343;28;80892;-62
2021/11/03 06:05:39;;;;;;;10.70;5.03;;;24.40;41.90;;;;;;6145367;28;80486;-61
2021/11/03 06:08:41;;;;;;;14.00;7.78;;;24.40;41.70;;;;;;6147050;28;81150;-62
2021/11/03 06:11:42;;;;;;;11.77;7.32;;;24.50;42.70;;;;;;6152118;28;81116;-63
2021/11/03 06:14:43;;;;;;;12.35;6.57;;;24.40;42.40;;;;;;6154067;28;80387;-61
2021/11/03 06:17:43;;;;;;;11.73;6.25;;;24.40;42.40;;;;;;6146272;28;80815;-62
2021/11/03 06:20:44;;;;;;;8.05;5.43;;;24.50;42.10;;;;;;6144288;28;84876;-63
2021/11/03 06:23:44;;;;;;;8.63;5.10;;;24.50;41.80;;;;;;6142605;28;80883;-62
2021/11/03 06:26:45;;;;;;;8.70;4.85;;;24.60;41.90;;;;;;6146539;28;80843;-62
2021/11/03 06:29:46;;;;;;;8.70;4.18;;;24.60;41.70;;;;;;6154769;28;82230;-62
2021/11/03 06:32:46;;;;;;;8.25;4.55;;;24.60;41.80;;;;;;6146952;28;80441;-62
2021/11/03 06:35:47;;;;;;;6.65;4.40;;;24.70;41.60;;;;;;6147462;28;81623;-61
2021/11/03 06:38:48;;;;;;;6.30;4.05;;;24.70;41.60;;;;;;6149660;28;81361;-62
2021/11/03 06:41:48;;;;;;;10.23;4.20;;;24.70;41.30;;;;;;6148279;28;80661;-62
2021/11/03 06:44:50;;;;;;;5.80;3.70;;;24.80;41.20;;;;;;6147281;28;80426;-62
2021/11/03 06:47:51;;;;;;;11.35;3.70;;;24.80;41.70;;;;;;6151797;28;80744;-61
2021/11/03 06:50:51;;;;;;;6.88;3.80;;;24.80;40.90;;;;;;6148488;28;80669;-61
2021/11/03 06:53:52;;;;;;;5.95;3.50;;;24.90;40.90;;;;;;6150382;28;80747;-60
2021/11/03 06:56:52;;;;;;;5.57;3.15;;;24.90;40.80;;;;;;6151646;28;80350;-60
2021/11/03 06:59:53;;;;;;;6.38;3.55;;;24.90;40.90;;;;;;6148260;28;80863;-60
2021/11/03 07:02:55;;;;;;;6.65;2.95;;;24.90;40.30;;;;;;6151471;28;81082;-61
2021/11/03 07:05:56;;;;;;;4.22;2.72;;;25.00;40.40;;;;;;6149692;28;81004;-60
2021/11/03 07:08:57;;;;;;;6.70;3.10;;;25.00;40.50;;;;;;6150087;28;80695;-62
2021/11/03 07:11:58;;;;;;;3.75;2.80;;;25.00;40.10;;;;;;6148929;28;81673;-60
2021/11/03 07:14:58;;;;;;;5.10;3.50;;;24.90;39.50;;;;;;6148906;28;80759;-61
2021/11/03 07:17:59;;;;;;;5.70;3.40;;;24.90;39.00;;;;;;6145136;28;80691;-62
2021/11/03 07:21:00;;;;;;;3.95;3.05;;;24.80;38.80;;;;;;6147277;28;83726;-62
2021/11/03 07:24:00;;;;;;;3.17;2.67;;;24.80;38.20;;;;;;6148412;28;80938;-61
2021/11/03 07:27:01;;;;;;;5.78;3.20;;;24.70;38.50;;;;;;6145868;28;82000;-62
2021/11/03 07:30:01;;;;;;;8.30;3.47;;;24.60;38.40;;;;;;6147700;28;80527;-60
2021/11/03 07:33:02;;;;;;;4.95;3.15;;;24.60;38.20;;;;;;6152201;28;80947;-61
2021/11/03 07:36:02;;;;;;;5.70;2.70;;;24.50;38.30;;;;;;6155807;28;81072;-62
2021/11/03 07:39:03;;;;;;;7.60;2.60;;;24.50;38.10;;;;;;6153027;28;80465;-62
2021/11/03 07:42:03;;;;;;;3.78;2.83;;;24.40;38.30;;;;;;6148398;28;82048;-63
2021/11/03 07:45:10;;;;;;;5.50;3.95;;;24.30;38.20;;;;;;6146779;28;83353;-61
2021/11/03 07:48:10;;;;;;;5.90;4.28;;;24.30;38.10;;;;;;6148897;28;80585;-61
2021/11/03 07:51:11;;;;;;;7.53;5.53;;;24.40;38.30;;;;;;6148495;28;80431;-61
2021/11/03 07:54:11;;;;;;;10.75;6.20;;;24.50;38.20;;;;;;6153472;28;80159;-60
2021/11/03 07:57:12;;;;;;;9.60;5.90;;;24.60;38.10;;;;;;6144291;28;80857;-60
2021/11/03 08:00:12;;;;;;;12.93;6.82;;;24.60;38.20;;;;;;6146131;28;80436;-60
2021/11/03 08:03:13;;;;;;;9.48;5.25;;;24.70;38.50;;;;;;6143949;28;83398;-61
2021/11/03 08:06:15;;;;;;;8.85;5.55;;;24.70;38.50;;;;;;6141490;28;81907;-61
2021/11/03 08:09:15;;;;;;;6.22;4.30;;;24.70;38.60;;;;;;6144691;28;83784;-60
2021/11/03 08:12:17;;;;;;;7.63;4.40;;;24.70;38.50;;;;;;6151643;28;80902;-60
2021/11/03 08:15:18;;;;;;;4.57;3.30;;;24.70;38.60;;;;;;6149083;28;80519;-60
2021/11/03 08:18:18;;;;;;;5.32;3.08;;;24.70;38.60;;;;;;6149203;28;81264;-60
2021/11/03 08:21:20;;;;;;;8.95;3.10;;;24.80;38.20;;;;;;6143781;28;80666;-61
2021/11/03 08:24:21;;;;;;;5.35;2.90;;;24.80;38.00;;;;;;6149221;28;82500;-60
2021/11/03 08:27:22;;;;;;;5.07;2.70;;;24.80;38.10;;;;;;6147387;28;80411;-61
2021/11/03 08:30:23;;;;;;;8.10;2.67;;;24.80;37.80;;;;;;6148006;28;81372;-61
2021/11/03 08:33:23;;;;;;;3.85;2.45;;;24.80;37.80;;;;;;6150179;28;80761;-60
2021/11/03 08:36:24;;;;;;;4.45;2.63;;;24.90;38.40;;;;;;6152854;28;80734;-61
2021/11/03 08:39:24;;;;;;;83.50;34.78;;;24.90;38.30;;;;;;6143464;28;81877;-61
2021/11/03 08:42:25;;;;;;;184.63;77.70;;;24.90;39.50;;;;;;6144230;28;83131;-61
2021/11/03 08:45:25;;;;;;;220.50;95.47;;;24.90;39.00;;;;;;6142360;28;83289;-59
2021/11/03 08:48:26;;;;;;;312.50;129.77;;;24.90;39.00;;;;;;6137173;28;83170;-60
2021/11/03 08:51:27;;;;;;;344.27;135.70;;;25.00;38.90;;;;;;6132329;28;85433;-60
2021/11/03 08:54:27;;;;;;;370.77;151.65;;;25.10;39.90;;;;;;6143119;28;85974;-61
2021/11/03 08:57:28;;;;;;;327.90;128.65;;;25.20;40.20;;;;;;6133506;28;85748;-62
2021/11/03 09:00:28;;;;;;;241.05;99.57;;;25.30;39.90;;;;;;6135719;28;87256;-60
2021/11/03 09:03:29;;;;;;;200.75;78.43;;;25.30;39.10;;;;;;6133073;28;91250;-60
2021/11/03 09:06:29;;;;;;;164.05;67.60;;;25.30;39.30;;;;;;6144178;28;83385;-60
2021/11/03 09:09:30;;;;;;;131.18;54.50;;;25.40;38.80;;;;;;6137364;28;84774;-60
2021/11/03 09:12:31;;;;;;;113.00;44.78;;;25.50;38.30;;;;;;6144752;28;83306;-62
2021/11/03 09:15:32;;;;;;;98.47;36.83;;;25.50;38.00;;;;;;6137503;28;84077;-61
2021/11/03 09:18:33;;;;;;;79.13;30.13;;;25.50;37.90;;;;;;6144777;28;83421;-61
2021/11/03 09:21:33;;;;;;;54.22;22.85;;;25.60;37.50;;;;;;6149329;28;83225;-60
2021/11/03 09:24:34;;;;;;;50.95;19.95;;;25.60;37.00;;;;;;6141043;28;85437;-60
2021/11/03 09:27:35;;;;;;;37.97;15.65;;;25.70;37.20;;;;;;6141784;28;85016;-60
2021/11/03 09:30:36;;;;;;;33.38;13.98;;;25.80;36.40;;;;;;6139840;28;83231;-61
2021/11/03 09:33:37;;;;;;;29.65;12.85;;;25.80;36.80;;;;;;6140284;28;84212;-62
2021/11/03 09:36:41;;;;;;;25.08;12.45;;;25.90;36.90;;;;;;6144250;28;83152;-60
2021/11/03 09:39:42;;;;;;;21.83;10.20;;;26.00;37.10;;;;;;6145639;28;83585;-60
2021/11/03 09:42:43;;;;;;;24.83;10.02;;;26.10;36.60;;;;;;6140688;28;83850;-61
2021/11/03 09:45:43;;;;;;;19.40;9.05;;;26.10;36.70;;;;;;6135498;28;83532;-60
2021/11/03 09:48:44;;;;;;;22.08;8.68;;;26.20;37.10;;;;;;6146531;28;87764;-62
2021/11/03 09:51:44;;;;;;;19.00;7.13;;;26.20;37.10;;;;;;6137888;28;80265;-61
2021/11/03 09:54:45;;;;;;;16.05;6.78;;;26.30;37.30;;;;;;6140481;28;80531;-62
2021/11/03 09:57:46;;;;;;;13.65;6.82;;;26.40;37.40;;;;;;6146319;28;81596;-61
2021/11/03 10:00:47;;;;;;;18.13;7.55;;;26.40;37.40;;;;;;6148864;28;80456;-61
2021/11/03 10:03:48;;;;;;;10.68;6.18;;;26.50;37.90;;;;;;6149983;28;81157;-62
2021/11/03 10:06:48;;;;;;;13.57;7.10;;;26.70;37.40;;;;;;6150209;28;80828;-60
2021/11/03 10:09:49;;;;;;;15.88;6.20;;;26.70;37.00;;;;;;6151319;28;82199;-60
2021/11/03 10:12:49;;;;;;;10.95;6.15;;;26.80;37.20;;;;;;6137489;28;81605;-60
2021/11/03 10:15:50;;;;;;;14.38;6.68;;;26.90;37.20;;;;;;6146857;28;80411;-60
2021/11/03 10:18:50;;;;;;;9.30;5.70;;;27.00;37.60;;;;;;6147206;28;80388;-61
2021/11/03 10:21:51;;;;;;;10.30;5.25;;;27.00;37.20;;;;;;6154300;28;81724;-61
2021/11/03 10:24:52;;;;;;;13.48;6.03;;;27.10;37.20;;;;;;6153171;28;81634;-61
2021/11/03 10:27:54;;;;;;;16.20;6.03;;;27.10;37.20;;;;;;6139518;28;80915;-60
2021/11/03 10:30:54;;;;;;;8.77;4.15;;;27.10;36.70;;;;;;6140359;28;82989;-61
2021/11/03 10:33:55;;;;;;;8.70;4.50;;;27.10;36.10;;;;;;6149599;28;80746;-60
2021/11/03 10:36:55;;;;;;;7.18;3.72;;;27.20;35.60;;;;;;6151611;28;81292;-61
2021/11/03 10:39:58;;;;;;;8.15;3.20;;;27.20;35.60;;;;;;6156243;28;82731;-61
2021/11/03 10:43:02;;;;;;;3.70;2.63;;;27.20;35.10;;;;;;6143802;28;80308;-61
2021/11/03 10:46:02;;;;;;;4.10;2.90;;;27.20;36.00;;;;;;6144557;28;80708;-62
2021/11/03 10:49:09;;;;;;;5.80;3.28;;;27.10;36.90;;;;;;6155404;28;81646;-62
2021/11/03 10:52:15;;;;;;;3.22;2.33;;;27.00;37.40;;;;;;6141054;28;80336;-61
2021/11/03 10:55:16;;;;;;;4.38;2.80;;;26.90;37.50;;;;;;6144921;28;81788;-62
2021/11/03 10:58:16;;;;;;;5.38;2.83;;;26.90;37.90;;;;;;6145839;28;81200;-61
2021/11/03 11:01:17;;;;;;;8.20;3.22;;;26.90;37.90;;;;;;6144588;28;80351;-62
2021/11/03 11:04:17;;;;;;;3.38;2.13;;;26.90;37.40;;;;;;6154585;28;81404;-61
2021/11/03 11:07:18;;;;;;;4.38;2.05;;;26.90;37.30;;;;;;6140581;28;81158;-62
2021/11/03 11:10:18;;;;;;;2.83;1.95;;;26.90;37.50;;;;;;6142511;28;80822;-62
2021/11/03 11:13:19;;;;;;;4.47;1.83;;;26.80;36.50;;;;;;6151225;28;80757;-62
2021/11/03 11:16:20;;;;;;;4.15;1.70;;;26.80;36.70;;;;;;6141753;28;82028;-60
2021/11/03 11:19:21;;;;;;;4.53;1.65;;;26.80;35.90;;;;;;6142019;28;82172;-60
2021/11/03 11:22:21;;;;;;;4.25;1.95;;;26.70;35.70;;;;;;6147593;28;82687;-61
2021/11/03 11:25:22;;;;;;;1.75;1.40;;;26.70;35.80;;;;;;6149570;28;80430;-61
2021/11/03 11:28:22;;;;;;;3.92;1.77;;;26.60;35.40;;;;;;6145363;28;80529;-61
2021/11/03 11:31:23;;;;;;;5.05;2.53;;;26.60;35.30;;;;;;6139133;28;80322;-61
2021/11/03 11:34:24;;;;;;;4.25;2.90;;;26.60;35.30;;;;;;6143903;28;80585;-63
2021/11/03 11:37:24;;;;;;;3.75;2.67;;;26.50;34.80;;;;;;6147256;28;80647;-61
2021/11/03 11:40:25;;;;;;;2.15;1.95;;;26.50;34.60;;;;;;6147789;28;81552;-63
2021/11/03 11:43:32;;;;;;;1.88;1.45;;;26.50;34.60;;;;;;6143053;28;81346;-61
2021/11/03 11:46:32;;;;;;;2.70;1.90;;;26.50;34.50;;;;;;6146629;28;81114;-62
2021/11/03 11:49:33;;;;;;;3.05;1.92;;;26.50;34.50;;;;;;6147591;28;80475;-63
2021/11/03 11:52:35;;;;;;;2.30;1.58;;;26.40;34.10;;;;;;6145916;28;80729;-62
2021/11/03 11:55:35;;;;;;;2.78;2.03;;;26.40;34.60;;;;;;6146525;28;81278;-61
2021/11/03 11:58:38;;;;;;;5.38;1.98;;;26.40;35.00;;;;;;6150035;28;80540;-62
2021/11/03 12:01:38;;;;;;;5.43;1.77;;;26.40;34.90;;;;;;6140115;28;80472;-61
2021/11/03 12:04:40;;;;;;;2.67;1.75;;;26.30;35.20;;;;;;6141816;28;82916;-62
2021/11/03 12:07:41;;;;;;;2.60;1.85;;;26.20;35.70;;;;;;6143089;28;81692;-62
2021/11/03 12:10:41;;;;;;;2.00;1.52;;;26.10;35.70;;;;;;6140129;28;81751;-62
2021/11/03 12:13:42;;;;;;;2.88;1.33;;;26.10;36.20;;;;;;6135831;28;81429;-61
2021/11/03 12:16:42;;;;;;;4.95;1.77;;;26.00;36.90;;;;;;6151085;28;80447;-61
2021/11/03 12:19:43;;;;;;;2.33;1.45;;;26.00;36.90;;;;;;6150134;28;80546;-62
2021/11/03 12:22:44;;;;;;;2.35;1.85;;;26.00;37.20;;;;;;6139813;28;81113;-62
2021/11/03 12:25:45;;;;;;;1.60;1.50;;;25.80;35.60;;;;;;6148323;28;80554;-63
2021/11/03 12:28:45;;;;;;;2.72;1.45;;;25.80;35.40;;;;;;6147822;28;80890;-61
2021/11/03 12:31:46;;;;;;;3.20;1.67;;;25.70;35.20;;;;;;6151955;28;80609;-62
2021/11/03 12:34:46;;;;;;;1.33;1.23;;;25.70;34.80;;;;;;6150317;28;80335;-61
2021/11/03 12:37:47;;;;;;;2.00;1.30;;;25.50;34.90;;;;;;6144974;28;80456;-62
2021/11/03 12:40:49;;;;;;;3.53;1.75;;;25.30;34.10;;;;;;6140378;28;81918;-63
2021/11/03 12:43:50;;;;;;;1.70;1.33;;;25.10;34.90;;;;;;6137467;28;81036;-63
2021/11/03 12:46:50;;;;;;;4.45;1.50;;;25.20;34.50;;;;;;6144136;28;80432;-62
2021/11/03 12:49:51;;;;;;;4.00;2.20;;;25.10;34.90;;;;;;6143111;28;81074;-61
2021/11/03 12:52:51;;;;;;;7.00;2.80;;;25.10;35.10;;;;;;6139998;28;80534;-62
2021/11/03 12:55:52;;;;;;;1.77;1.20;;;24.90;34.20;;;;;;6145675;28;80512;-62
2021/11/03 12:58:53;;;;;;;1.50;1.30;;;23.90;33.90;;;;;;6137509;28;81224;-62
2021/11/03 13:01:54;;;;;;;3.88;1.60;;;23.20;35.00;;;;;;6146815;28;81037;-62
2021/11/03 13:04:54;;;;;;;1.48;1.13;;;23.10;37.00;;;;;;6136162;28;80475;-62
2021/11/03 13:07:55;;;;;;;4.32;1.50;;;22.90;36.70;;;;;;6137643;28;80368;-62
2021/11/03 13:10:55;;;;;;;7.35;2.35;;;23.00;37.40;;;;;;6140370;28;83762;-63
2021/11/03 13:13:56;;;;;;;5.28;1.75;;;22.70;37.50;;;;;;6149359;28;80473;-62
2021/11/03 13:16:57;;;;;;;4.88;1.77;;;22.30;37.80;;;;;;6136243;28;83099;-64
2021/11/03 13:19:57;;;;;;;4.32;1.73;;;22.20;38.70;;;;;;6151856;28;81172;-63
2021/11/03 13:22:58;;;;;;;3.97;2.28;;;22.10;38.90;;;;;;6148132;28;80486;-63
2021/11/03 13:25:58;;;;;;;3.10;2.10;;;22.40;39.50;;;;;;6145789;28;80768;-62
2021/11/03 13:28:59;;;;;;;2.85;1.95;;;22.50;39.40;;;;;;6143344;28;82176;-64
2021/11/03 13:31:59;;;;;;;3.00;2.05;;;22.30;39.80;;;;;;6149692;28;80649;-64
2021/11/03 13:35:00;;;;;;;4.82;2.05;;;21.90;39.80;;;;;;6146002;28;80559;-63
2021/11/03 13:38:03;;;;;;;3.60;2.10;;;21.80;39.40;;;;;;6145966;28;82109;-65
2021/11/03 13:41:04;;;;;;;3.95;2.28;;;21.80;39.50;;;;;;6145819;28;80517;-66
2021/11/03 13:44:04;;;;;;;7.03;1.80;;;21.80;39.40;;;;;;6150129;28;81671;-64
2021/11/03 13:47:05;;;;;;;6.32;2.53;;;21.80;38.80;;;;;;6149116;28;80418;-62
2021/11/03 13:50:05;;;;;;;10.48;2.08;;;21.90;39.00;;;;;;6145611;28;80909;-64
2021/11/03 13:53:06;;;;;;;3.88;1.80;;;22.30;39.30;;;;;;6150779;28;81671;-63
2021/11/03 13:56:06;;;;;;;5.30;2.05;;;22.40;39.10;;;;;;6142867;28;81033;-66
2021/11/03 13:59:07;;;;;;;6.32;2.72;;;22.40;39.20;;;;;;6150998;28;80526;-63
2021/11/03 14:02:08;;;;;;;7.90;2.65;;;22.60;40.30;;;;;;6146506;28;80771;-62
2021/11/03 14:05:08;;;;;;;4.68;1.90;;;22.90;39.30;;;;;;6151434;28;80900;-66
2021/11/03 14:08:09;;;;;;;4.57;2.60;;;23.10;39.80;;;;;;6152054;28;81284;-63
2021/11/03 14:11:10;;;;;;;3.53;2.42;;;23.30;39.90;;;;;;6152352;28;81509;-63
2021/11/03 14:14:11;;;;;;;3.72;2.88;;;23.60;40.20;;;;;;6154215;28;80664;-63
2021/11/03 14:17:11;;;;;;;5.22;2.90;;;23.70;39.60;;;;;;6150897;28;80842;-63
2021/11/03 14:20:12;;;;;;;4.25;2.65;;;23.80;39.20;;;;;;6145518;28;83341;-63
2021/11/03 14:23:12;;;;;;;4.80;2.50;;;23.90;39.40;;;;;;6151998;28;80834;-63
2021/11/03 14:26:13;;;;;;;4.90;2.80;;;24.00;40.40;;;;;;6149789;28;80490;-62
2021/11/03 14:29:13;;;;;;;3.42;2.40;;;24.10;40.30;;;;;;6147203;28;80654;-61
2021/11/03 14:32:15;;;;;;;3.92;2.88;;;24.00;40.10;;;;;;6151286;28;80885;-61
2021/11/03 14:35:15;;;;;;;4.38;3.20;;;24.10;40.20;;;;;;6151900;28;80559;-61
2021/11/03 14:38:16;;;;;;;4.60;2.95;;;24.20;39.50;;;;;;6151046;28;80577;-63
2021/11/03 14:41:16;;;;;;;5.28;2.90;;;24.20;40.30;;;;;;6150441;28;80536;-63
2021/11/03 14:44:17;;;;;;;4.07;2.92;;;24.40;39.60;;;;;;6150870;28;80829;-65
2021/11/03 14:47:18;;;;;;;8.32;3.80;;;24.40;39.30;;;;;;6154002;28;81337;-64
2021/11/03 14:50:18;;;;;;;4.72;3.03;;;24.50;39.10;;;;;;6153965;28;80573;-63
2021/11/03 14:53:19;;;;;;;5.43;2.75;;;24.60;38.90;;;;;;6153490;28;80870;-64
2021/11/03 14:56:19;;;;;;;3.55;2.67;;;24.70;38.80;;;;;;6154582;28;81604;-64
2021/11/03 14:59:20;;;;;;;4.60;3.28;;;24.70;38.90;;;;;;6152370;28;80750;-64
2021/11/03 15:02:20;;;;;;;3.85;2.70;;;24.80;38.90;;;;;;6150730;28;81424;-64
2021/11/03 15:05:21;;;;;;;4.75;2.83;;;24.70;38.70;;;;;;6156991;28;80458;-63
2021/11/03 15:08:23;;;;;;;7.60;3.88;;;24.80;38.80;;;;;;6149841;28;80567;-63
2021/11/03 15:11:24;;;;;;;5.55;3.80;;;24.70;38.90;;;;;;6150306;28;80819;-61
2021/11/03 15:14:24;;;;;;;7.97;3.50;;;24.80;38.80;;;;;;6151838;28;80544;-61
2021/11/03 15:17:25;;;;;;;6.75;3.72;;;24.70;38.50;;;;;;6152202;28;81113;-61
2021/11/03 15:20:26;;;;;;;8.68;3.70;;;24.80;38.70;;;;;;6152908;28;81562;-62
2021/11/03 15:23:26;;;;;;;7.70;3.50;;;24.70;38.90;;;;;;6153680;28;80324;-62
2021/11/03 15:26:27;;;;;;;6.30;3.75;;;24.80;39.00;;;;;;6151441;28;80353;-62
2021/11/03 15:29:28;;;;;;;5.68;3.58;;;24.70;38.90;;;;;;6153928;28;81474;-61
2021/11/03 15:32:28;;;;;;;4.55;3.45;;;24.70;38.80;;;;;;6150346;28;80793;-61
2021/11/03 15:35:29;;;;;;;7.93;4.40;;;24.70;39.20;;;;;;6147510;28;81864;-62